Terminal Aerodrome Forecast
Issued by NWS Grand Rapids, MI

Home | Current Version | Previous Version | Text Only | Print | Product List | Glossary On
Versions: 1 2 3 4 5 6 7 8 9 10 11 12 13 14 15 16 17 18 19 20
000
FTUS43 KGRR 062102 AAB
TAFGRR
TAF AMD
KGRR 062102Z 0621/0718 21009G15KT 6SM HZ SCT040 BKN250
     FM070900 21011KT 6SM -SHRA BR VCTS BKN025CB OVC050
     FM071100 28010KT 4SM -SHRA OVC015
     FM071500 36010KT P6SM SCT025=

USA.gov is the U.S. government's official web portal to all federal, state and local government web resources and services.